createdAt,value
2018-11-27T00:01:31.024Z,1.69
2018-11-27T00:06:33.669Z,1.63
2018-11-27T00:11:36.284Z,1.59
2018-11-27T00:16:38.933Z,1.55
2018-11-27T00:21:41.566Z,1.50
2018-11-27T00:26:44.213Z,1.45
2018-11-27T00:31:46.784Z,1.44
2018-11-27T00:36:49.362Z,1.42
2018-11-27T00:41:51.926Z,1.38
2018-11-27T00:46:54.558Z,1.33
2018-11-27T00:51:57.193Z,1.30
2018-11-27T00:56:59.841Z,1.26
2018-11-27T01:02:02.533Z,1.24
2018-11-27T01:07:05.156Z,1.17
2018-11-27T01:12:07.751Z,1.16
2018-11-27T01:17:10.365Z,1.13
2018-11-27T01:22:12.977Z,1.10
2018-11-27T01:27:15.622Z,1.05
2018-11-27T01:32:18.188Z,1.02
2018-11-27T01:37:20.843Z,0.96
2018-11-27T01:42:23.486Z,0.92
2018-11-27T01:47:26.144Z,0.90
2018-11-27T01:52:28.831Z,0.89
2018-11-27T01:57:31.437Z,0.86
2018-11-27T02:02:34.173Z,0.82
2018-11-27T02:07:36.827Z,0.80
2018-11-27T02:12:40.962Z,0.78
2018-11-27T02:17:43.569Z,0.74
2018-11-27T02:22:46.164Z,0.72
2018-11-27T02:27:48.781Z,0.70
2018-11-27T02:32:51.396Z,0.67
2018-11-27T02:37:55.559Z,0.63
2018-11-27T02:42:58.217Z,0.60
2018-11-27T02:48:00.829Z,0.58
2018-11-27T02:53:03.453Z,0.57
2018-11-27T02:58:06.266Z,0.57
2018-11-27T03:03:08.864Z,0.56
2018-11-27T03:08:11.469Z,0.57
2018-11-27T03:13:14.149Z,0.56
2018-11-27T03:18:16.825Z,0.56
2018-11-27T03:23:19.675Z,0.55
2018-11-27T03:28:22.314Z,0.48
2018-11-27T03:33:24.960Z,0.42
2018-11-27T03:38:27.607Z,0.39
2018-11-27T03:43:30.234Z,0.36
2018-11-27T03:48:32.873Z,0.36
2018-11-27T03:53:35.502Z,0.37
2018-11-27T03:58:38.292Z,0.36
2018-11-27T04:03:40.859Z,0.38
2018-11-27T04:08:43.480Z,0.37
2018-11-27T04:13:46.106Z,0.35
2018-11-27T04:18:49.289Z,0.31
2018-11-27T04:23:52.595Z,0.27
2018-11-27T04:28:55.219Z,0.27
2018-11-27T04:33:57.850Z,0.27
2018-11-27T04:39:00.598Z,0.23
2018-11-27T04:44:03.279Z,0.19
2018-11-27T04:49:06.373Z,0.14
2018-11-27T04:54:08.961Z,0.14
2018-11-27T04:59:11.593Z,0.11
2018-11-27T05:04:14.202Z,0.07
2018-11-27T05:09:16.901Z,0.06
2018-11-27T05:14:19.732Z,0.02
2018-11-27T05:19:22.390Z,-0.02
2018-11-27T05:24:25.000Z,-0.04
2018-11-27T05:29:27.805Z,-0.05
2018-11-27T05:34:30.421Z,-0.05
2018-11-27T05:39:32.960Z,-0.05
2018-11-27T05:44:35.506Z,-0.03
2018-11-27T05:49:38.156Z,-0.05
2018-11-27T05:54:40.768Z,-0.08
2018-11-27T05:59:43.376Z,-0.09
2018-11-27T06:04:46.958Z,-0.12
2018-11-27T06:09:49.667Z,-0.12
2018-11-27T06:14:52.309Z,-0.12
2018-11-27T06:19:54.879Z,-0.12
2018-11-27T06:24:57.490Z,-0.10
2018-11-27T06:30:00.078Z,-0.09
2018-11-27T06:35:02.826Z,-0.06
2018-11-27T06:40:13.097Z,0.00
2018-11-27T06:45:17.107Z,0.01
2018-11-27T06:50:20.920Z,0.01
2018-11-27T06:55:24.049Z,-0.02
2018-11-27T07:00:27.915Z,0.01
2018-11-27T07:05:30.656Z,0.02
2018-11-27T07:10:33.769Z,-0.01
2018-11-27T07:15:36.488Z,-0.02
2018-11-27T07:20:39.166Z,-0.03
2018-11-27T07:25:41.815Z,-0.01
2018-11-27T07:30:44.435Z,0.07
2018-11-27T07:35:47.137Z,0.15
2018-11-27T07:40:49.851Z,0.21
2018-11-27T07:45:55.217Z,0.27
2018-11-27T07:50:55.249Z,0.29
2018-11-27T07:55:57.921Z,0.37
2018-11-27T08:01:00.876Z,0.46
2018-11-27T08:06:03.475Z,0.55
2018-11-27T08:11:06.081Z,0.61
2018-11-27T08:16:08.780Z,0.70
2018-11-27T08:21:11.421Z,0.82
2018-11-27T08:26:14.009Z,0.96
2018-11-27T08:31:16.670Z,1.04
2018-11-27T08:36:19.470Z,1.14
2018-11-27T08:41:22.240Z,1.21
2018-11-27T08:46:25.341Z,1.23
2018-11-27T08:51:27.903Z,1.27
2018-11-27T08:56:30.693Z,1.34
2018-11-27T09:01:33.341Z,1.43
2018-11-27T09:06:36.007Z,1.54
2018-11-27T09:11:38.694Z,1.61
2018-11-27T09:16:41.489Z,1.66
2018-11-27T09:21:44.168Z,1.72
2018-11-27T09:26:50.626Z,1.77
2018-11-27T09:31:53.301Z,1.85
2018-11-27T09:36:55.963Z,1.88
2018-11-27T09:41:58.780Z,1.91
2018-11-27T09:47:01.397Z,1.93
2018-11-27T09:52:04.120Z,1.98
2018-11-27T09:57:06.773Z,2.02
2018-11-27T10:02:09.381Z,2.06
2018-11-27T10:07:12.109Z,2.11
2018-11-27T10:12:14.794Z,2.17
2018-11-27T10:17:17.425Z,2.17
2018-11-27T10:22:20.112Z,2.16
2018-11-27T10:27:22.736Z,2.14
2018-11-27T10:32:25.351Z,2.13
2018-11-27T10:37:27.917Z,2.08
2018-11-27T10:42:30.632Z,2.04
2018-11-27T10:47:33.289Z,2.05
2018-11-27T10:52:36.113Z,2.02
2018-11-27T10:57:38.833Z,1.98
2018-11-27T11:02:41.442Z,2.02
2018-11-27T11:07:44.225Z,2.03
2018-11-27T11:12:46.862Z,2.06
2018-11-27T11:17:49.591Z,2.10
2018-11-27T11:22:52.622Z,2.17
2018-11-27T11:27:57.399Z,2.22
2018-11-27T11:33:00.181Z,2.24
2018-11-27T11:38:03.391Z,2.31
2018-11-27T11:43:06.854Z,2.35
2018-11-27T11:48:09.678Z,2.36
2018-11-27T11:53:14.934Z,2.37
2018-11-27T11:58:17.915Z,2.41
2018-11-27T12:03:20.907Z,2.45
2018-11-27T12:08:23.817Z,2.47
2018-11-27T12:13:26.565Z,2.46
2018-11-27T12:18:29.395Z,2.49
2018-11-27T12:23:32.465Z,2.53
2018-11-27T12:28:35.394Z,2.55
2018-11-27T12:33:38.281Z,2.55
2018-11-27T12:38:40.880Z,2.55
2018-11-27T12:43:43.582Z,2.59
2018-11-27T12:48:46.165Z,2.61
2018-11-27T12:53:48.793Z,2.63
2018-11-27T12:58:51.444Z,2.66
2018-11-27T13:03:54.305Z,2.65
2018-11-27T13:08:56.978Z,2.65
2018-11-27T13:13:59.668Z,2.66
2018-11-27T13:19:02.377Z,2.65
2018-11-27T13:24:05.424Z,2.65
2018-11-27T13:29:08.076Z,2.63
2018-11-27T13:34:13.488Z,2.62
2018-11-27T13:39:33.054Z,2.65
2018-11-27T13:44:36.077Z,2.63
2018-11-27T13:49:38.648Z,2.63
2018-11-27T13:54:41.241Z,2.64
2018-11-27T13:59:43.874Z,2.64
2018-11-27T14:04:46.603Z,2.62
2018-11-27T14:09:49.216Z,2.63
2018-11-27T14:14:51.863Z,2.64
2018-11-27T14:19:54.518Z,2.63
2018-11-27T14:24:57.150Z,2.63
2018-11-27T14:29:59.736Z,2.64
2018-11-27T14:35:02.488Z,2.64
2018-11-27T14:40:13.962Z,2.63
2018-11-27T14:45:19.291Z,2.63
2018-11-27T14:50:21.905Z,2.62
2018-11-27T14:55:27.492Z,2.60
2018-11-27T15:00:30.314Z,2.56
2018-11-27T15:05:35.824Z,2.53
2018-11-27T15:10:38.444Z,2.53
2018-11-27T15:15:41.102Z,2.50
2018-11-27T15:20:43.758Z,2.50
2018-11-27T15:25:46.444Z,2.51
2018-11-27T15:30:49.245Z,2.54
2018-11-27T15:35:51.884Z,2.54
2018-11-27T15:40:54.603Z,2.55
2018-11-27T15:45:57.375Z,2.59
2018-11-27T15:51:00.012Z,2.61
2018-11-27T15:56:02.751Z,2.63
2018-11-27T16:01:05.926Z,2.65
2018-11-27T16:06:08.603Z,2.66
2018-11-27T16:11:11.200Z,2.66
2018-11-27T16:16:13.818Z,2.66
2018-11-27T16:21:16.404Z,2.66
2018-11-27T16:26:18.980Z,2.67
2018-11-27T16:31:21.587Z,2.64
2018-11-27T16:36:24.131Z,2.66
2018-11-27T16:41:26.782Z,2.65
2018-11-27T16:46:29.428Z,2.64
2018-11-27T16:51:32.076Z,2.65
2018-11-27T16:56:34.640Z,2.66
2018-11-27T17:01:37.318Z,2.68
2018-11-27T17:06:39.905Z,2.70
2018-11-27T17:11:42.476Z,2.70
2018-11-27T17:16:45.076Z,2.68
2018-11-27T17:21:47.732Z,2.68
2018-11-27T17:26:50.282Z,2.69
2018-11-27T17:31:52.925Z,2.69
2018-11-27T17:36:55.539Z,2.68
2018-11-27T17:41:59.018Z,2.67
2018-11-27T17:47:01.929Z,2.65
2018-11-27T17:52:04.483Z,2.64
2018-11-27T17:57:07.073Z,2.63
2018-11-27T18:02:09.689Z,2.64
2018-11-27T18:07:12.328Z,2.63
2018-11-27T18:12:14.992Z,2.67
2018-11-27T18:17:17.581Z,2.68
2018-11-27T18:22:20.197Z,2.63
2018-11-27T18:27:22.780Z,2.61
2018-11-27T18:32:25.473Z,2.59
2018-11-27T18:37:28.069Z,2.58
2018-11-27T18:42:30.654Z,2.57
2018-11-27T18:47:33.319Z,2.57
2018-11-27T18:52:36.016Z,2.57
2018-11-27T18:57:39.376Z,2.55
2018-11-27T19:02:42.244Z,2.53
2018-11-27T19:07:44.857Z,2.51
2018-11-27T19:12:48.099Z,2.50
2018-11-27T19:17:53.500Z,2.51
2018-11-27T19:22:56.141Z,2.50
2018-11-27T19:27:58.729Z,2.50
2018-11-27T19:33:01.360Z,2.53
2018-11-27T19:38:06.040Z,2.53
2018-11-27T19:43:08.682Z,2.54
2018-11-27T19:48:12.800Z,2.51
2018-11-27T19:53:15.942Z,2.50
2018-11-27T19:58:18.600Z,2.52
2018-11-27T20:03:21.209Z,2.53
2018-11-27T20:08:24.862Z,2.54
2018-11-27T20:13:27.675Z,2.51
2018-11-27T20:18:30.285Z,2.49
2018-11-27T20:23:32.955Z,2.49
2018-11-27T20:28:35.597Z,2.48
2018-11-27T20:33:38.208Z,2.45
2018-11-27T20:38:40.838Z,2.46
2018-11-27T20:43:43.600Z,2.48
2018-11-27T20:48:46.171Z,2.50
2018-11-27T20:53:48.805Z,2.51
2018-11-27T20:58:52.194Z,2.53
2018-11-27T21:03:54.842Z,2.54
2018-11-27T21:08:57.482Z,2.55
2018-11-27T21:14:00.072Z,2.56
2018-11-27T21:19:02.670Z,2.55
2018-11-27T21:24:05.559Z,2.57
2018-11-27T21:29:08.266Z,2.57
2018-11-27T21:34:10.852Z,2.58
2018-11-27T21:39:13.541Z,2.57
2018-11-27T21:44:16.183Z,2.59
2018-11-27T21:49:18.806Z,2.61
2018-11-27T21:54:21.480Z,2.61
2018-11-27T21:59:24.092Z,2.61
2018-11-27T22:04:26.761Z,2.60
2018-11-27T22:09:29.404Z,2.59
2018-11-27T22:14:32.055Z,2.63
2018-11-27T22:19:34.725Z,2.63
2018-11-27T22:24:37.316Z,2.63
2018-11-27T22:29:39.937Z,2.63
2018-11-27T22:34:42.722Z,2.63
2018-11-27T22:39:45.330Z,2.63
2018-11-27T22:44:48.013Z,2.63
2018-11-27T22:49:50.632Z,2.65
2018-11-27T22:54:53.294Z,2.64
2018-11-27T22:59:55.888Z,2.65
2018-11-27T23:04:58.538Z,2.67
2018-11-27T23:10:01.168Z,2.68
2018-11-27T23:15:05.397Z,2.70
2018-11-27T23:20:11.664Z,2.70
2018-11-27T23:25:15.765Z,2.69
2018-11-27T23:30:20.448Z,2.70
2018-11-27T23:35:23.062Z,2.72
2018-11-27T23:40:25.762Z,2.72
2018-11-27T23:45:28.510Z,2.73
2018-11-27T23:50:31.132Z,2.74
2018-11-27T23:55:33.766Z,2.74
